Time;durP1;ratioP1;P1;durP2;ratioP2;P2;SDS_P1;SDS_P2;PMS_P1;PMS_P2;Temp;Humidity;BMP_temperature;BMP_pressure;BME280_temperature;BME280_humidity;BME280_pressure;Samples;Min_cycle;Max_cycle;Signal;HPM_P1;HPM_P2
2022/10/10 00:01:24;;;;;;;;;;;8.70;99.90;;;;;;4980408;28;19972;-72
2022/10/10 00:03:50;;;;;;;;;;;8.60;99.90;;;;;;4977118;28;19953;-72
2022/10/10 00:06:17;;;;;;;;;;;8.60;99.90;;;;;;4979969;28;19956;-72
2022/10/10 00:08:44;;;;;;;;;;;8.60;99.90;;;;;;4980049;28;20349;-72
2022/10/10 00:11:10;;;;;;;;;;;8.50;99.90;;;;;;4959731;28;19940;-71
2022/10/10 00:13:36;;;;;;;;;;;8.50;99.90;;;;;;4976309;28;20404;-73
2022/10/10 00:16:02;;;;;;;;;;;8.50;99.90;;;;;;4973259;28;19918;-73
2022/10/10 00:18:28;;;;;;;;;;;8.60;99.90;;;;;;4968793;28;19918;-73
2022/10/10 00:20:53;;;;;;;;;;;8.60;99.90;;;;;;4974086;28;20698;-73
2022/10/10 00:23:19;;;;;;;;;;;8.60;99.90;;;;;;4974710;28;19928;-73
2022/10/10 00:25:45;;;;;;;;;;;8.70;99.90;;;;;;4979023;28;19924;-73
2022/10/10 00:28:11;;;;;;;;;;;8.70;99.90;;;;;;4974174;28;19982;-73
2022/10/10 00:30:37;;;;;;;;;;;8.80;99.90;;;;;;4977827;28;19918;-73
2022/10/10 00:33:02;;;;;;;;;;;8.80;99.90;;;;;;4977290;28;20374;-73
2022/10/10 00:35:29;;;;;;;;;;;8.90;99.90;;;;;;4967802;28;20315;-73
2022/10/10 00:37:55;;;;;;;;;;;9.00;99.90;;;;;;4960953;28;20029;-73
2022/10/10 00:40:21;;;;;;;;;;;9.10;99.90;;;;;;4960009;28;20001;-72
2022/10/10 00:42:46;;;;;;;;;;;9.10;99.90;;;;;;4973721;28;20032;-73
2022/10/10 00:45:21;;;;;;;;;;;9.20;99.90;;;;;;4950821;28;20017;-73
2022/10/10 00:47:48;;;;;;;;;;;9.20;99.90;;;;;;4938014;28;19927;-73
2022/10/10 00:50:14;;;;;;;;;;;9.10;99.90;;;;;;4941066;29;19918;-73
2022/10/10 00:52:40;;;;;;;;;;;9.10;99.90;;;;;;4975473;28;19924;-74
2022/10/10 00:55:05;;;;;;;;;;;9.00;99.90;;;;;;4984129;28;19945;-73
2022/10/10 00:57:31;;;;;;;;;;;8.90;99.90;;;;;;4971102;28;20004;-73
2022/10/10 00:59:57;;;;;;;;;;;8.90;99.90;;;;;;4965099;28;19918;-73
2022/10/10 01:02:22;;;;;;;;;;;9.00;99.90;;;;;;4955701;28;20425;-73
2022/10/10 01:04:48;;;;;;;;;;;9.00;99.90;;;;;;4960790;28;19972;-72
2022/10/10 01:07:28;;;;;;;;;;;9.00;99.90;;;;;;4961496;28;20297;-73
2022/10/10 01:09:55;;;;;;;;;;;9.00;99.90;;;;;;4963962;28;19927;-72
2022/10/10 01:12:39;;;;;;;;;;;9.00;99.90;;;;;;4964443;28;19961;-73
2022/10/10 01:15:11;;;;;;;;;;;9.10;99.90;;;;;;4971721;28;19991;-73
2022/10/10 01:17:56;;;;;;;;;;;9.10;99.90;;;;;;4970148;28;19923;-73
2022/10/10 01:20:40;;;;;;;;;;;9.10;99.90;;;;;;4944718;28;19994;-73
2022/10/10 01:23:18;;;;;;;;;;;9.10;99.90;;;;;;4963864;28;20458;-74
2022/10/10 01:25:56;;;;;;;;;;;9.10;99.90;;;;;;4973701;28;19925;-73
2022/10/10 01:28:41;;;;;;;;;;;9.20;99.90;;;;;;4973137;28;19925;-74
2022/10/10 01:31:07;;;;;;;;;;;9.20;99.90;;;;;;4975898;28;19944;-73
2022/10/10 01:33:47;;;;;;;;;;;9.10;99.90;;;;;;4960722;28;20278;-73
2022/10/10 01:36:20;;;;;;;;;;;9.10;99.90;;;;;;4968070;28;19922;-73
2022/10/10 01:38:51;;;;;;;;;;;9.10;99.90;;;;;;4982579;28;19913;-74
2022/10/10 01:41:23;;;;;;;;;;;9.10;99.90;;;;;;4983296;28;19987;-73
2022/10/10 01:43:56;;;;;;;;;;;9.10;99.90;;;;;;4965138;28;20100;-73
2022/10/10 01:46:21;;;;;;;;;;;9.10;99.90;;;;;;4959067;28;20384;-73
2022/10/10 01:48:49;;;;;;;;;;;9.10;99.90;;;;;;4958006;28;20410;-73
2022/10/10 01:51:30;;;;;;;;;;;9.10;99.90;;;;;;4956352;28;20006;-73
2022/10/10 01:54:05;;;;;;;;;;;9.00;99.90;;;;;;4959691;28;19926;-73
2022/10/10 01:56:47;;;;;;;;;;;9.00;99.90;;;;;;4956288;28;19918;-74
2022/10/10 01:59:30;;;;;;;;;;;9.10;99.90;;;;;;4956799;28;20445;-73
2022/10/10 02:01:59;;;;;;;;;;;9.50;99.90;;;;;;4958739;28;19922;-73
2022/10/10 02:04:25;;;;;;;;;;;9.40;99.90;;;;;;4972273;28;19917;-74
2022/10/10 02:06:53;;;;;;;;;;;9.40;99.90;;;;;;4960651;28;19941;-73
2022/10/10 02:09:23;;;;;;;;;;;9.30;99.90;;;;;;4950496;28;19915;-73
2022/10/10 02:11:49;;;;;;;;;;;9.30;99.90;;;;;;4940539;29;19925;-73
2022/10/10 02:14:16;;;;;;;;;;;9.30;99.90;;;;;;4954461;28;19918;-73
2022/10/10 02:16:43;;;;;;;;;;;9.30;99.90;;;;;;4964832;28;19956;-74
2022/10/10 02:19:11;;;;;;;;;;;9.30;99.90;;;;;;4962481;28;20559;-73
2022/10/10 02:21:37;;;;;;;;;;;9.30;99.90;;;;;;4957150;28;19925;-73
2022/10/10 02:24:05;;;;;;;;;;;9.30;99.90;;;;;;4961458;28;19918;-73
2022/10/10 02:26:31;;;;;;;;;;;9.30;99.90;;;;;;4955719;28;19918;-73
2022/10/10 02:29:02;;;;;;;;;;;9.30;99.90;;;;;;4960589;28;19920;-73
2022/10/10 02:31:31;;;;;;;;;;;9.30;99.90;;;;;;4953766;28;20365;-73
2022/10/10 02:34:00;;;;;;;;;;;9.30;99.90;;;;;;4958436;28;20000;-73
2022/10/10 02:36:27;;;;;;;;;;;9.30;99.90;;;;;;4957658;28;19970;-73
2022/10/10 02:38:53;;;;;;;;;;;9.40;99.90;;;;;;4961281;28;20203;-73
2022/10/10 02:41:20;;;;;;;;;;;9.40;99.90;;;;;;4962603;28;19992;-74
2022/10/10 02:43:46;;;;;;;;;;;9.30;99.90;;;;;;4965141;28;19918;-73
2022/10/10 02:46:13;;;;;;;;;;;9.30;99.90;;;;;;4979657;28;20292;-73
2022/10/10 02:48:39;;;;;;;;;;;9.30;99.90;;;;;;4976365;28;19926;-73
2022/10/10 02:51:05;;;;;;;;;;;9.30;99.90;;;;;;4975918;28;19972;-73
2022/10/10 02:53:30;;;;;;;;;;;9.30;99.90;;;;;;4974924;28;20286;-72
2022/10/10 02:55:56;;;;;;;;;;;9.40;99.90;;;;;;4961525;28;19926;-73
2022/10/10 02:58:21;;;;;;;;;;;9.50;99.90;;;;;;4969278;28;19981;-73
2022/10/10 03:00:47;;;;;;;;;;;9.50;99.90;;;;;;4961794;28;19918;-73
2022/10/10 03:03:12;;;;;;;;;;;9.60;99.90;;;;;;4962230;28;20249;-73
2022/10/10 03:05:38;;;;;;;;;;;9.70;99.90;;;;;;4964905;28;19918;-73
2022/10/10 03:08:03;;;;;;;;;;;9.90;99.90;;;;;;4953234;28;19918;-73
2022/10/10 03:10:29;;;;;;;;;;;10.00;99.90;;;;;;4943646;28;19949;-73
2022/10/10 03:12:54;;;;;;;;;;;10.20;99.90;;;;;;4946949;28;20417;-74
2022/10/10 03:15:20;;;;;;;;;;;10.30;99.90;;;;;;4970970;28;19921;-74
2022/10/10 03:17:45;;;;;;;;;;;10.40;99.90;;;;;;4959442;28;19922;-73
2022/10/10 03:20:10;;;;;;;;;;;10.60;99.90;;;;;;4968132;28;20105;-73
2022/10/10 03:22:36;;;;;;;;;;;10.60;99.90;;;;;;4962418;28;20183;-73
2022/10/10 03:25:02;;;;;;;;;;;10.60;99.90;;;;;;4963567;28;20266;-73
2022/10/10 03:27:27;;;;;;;;;;;10.70;99.90;;;;;;4962409;28;20224;-74
2022/10/10 03:29:53;;;;;;;;;;;10.70;99.90;;;;;;4959004;28;19918;-73
2022/10/10 03:32:18;;;;;;;;;;;10.70;99.90;;;;;;4961787;28;20404;-73
2022/10/10 03:34:44;;;;;;;;;;;10.70;99.90;;;;;;4970116;28;19945;-74
2022/10/10 03:37:09;;;;;;;;;;;10.80;99.90;;;;;;4965544;28;20441;-75
2022/10/10 03:39:35;;;;;;;;;;;10.80;99.90;;;;;;4959218;28;20243;-74
2022/10/10 03:42:00;;;;;;;;;;;10.80;99.90;;;;;;4960442;28;20856;-72
2022/10/10 03:44:26;;;;;;;;;;;10.80;99.90;;;;;;4963367;28;19917;-73
2022/10/10 03:46:51;;;;;;;;;;;10.70;99.90;;;;;;4978947;28;19925;-72
2022/10/10 03:49:17;;;;;;;;;;;10.70;99.90;;;;;;4970116;28;20398;-72
2022/10/10 03:51:43;;;;;;;;;;;10.80;99.90;;;;;;4953038;28;20429;-73
2022/10/10 03:54:08;;;;;;;;;;;10.80;99.90;;;;;;4963712;28;19970;-72
2022/10/10 03:56:34;;;;;;;;;;;10.80;99.90;;;;;;4976509;28;20455;-73
2022/10/10 03:59:02;;;;;;;;;;;10.80;99.90;;;;;;4981728;28;19913;-73
2022/10/10 04:01:28;;;;;;;;;;;10.90;99.90;;;;;;4975631;28;20334;-73
2022/10/10 04:03:54;;;;;;;;;;;10.80;99.90;;;;;;4963590;28;19969;-73
2022/10/10 04:06:20;;;;;;;;;;;10.80;99.90;;;;;;4978858;28;19937;-72
2022/10/10 04:08:45;;;;;;;;;;;10.80;99.90;;;;;;4947108;28;20263;-73
2022/10/10 04:11:11;;;;;;;;;;;10.90;99.90;;;;;;4961336;28;19961;-73
2022/10/10 04:13:36;;;;;;;;;;;10.90;99.90;;;;;;4963668;28;19918;-73
2022/10/10 04:16:02;;;;;;;;;;;11.00;99.90;;;;;;4958738;28;19998;-73
2022/10/10 04:18:28;;;;;;;;;;;11.00;99.90;;;;;;4957645;28;20372;-73
2022/10/10 04:20:53;;;;;;;;;;;11.00;99.90;;;;;;4971791;28;20329;-73
2022/10/10 04:23:19;;;;;;;;;;;11.00;99.90;;;;;;4981231;28;19941;-72
2022/10/10 04:25:44;;;;;;;;;;;11.00;99.90;;;;;;4963983;28;19914;-72
2022/10/10 04:28:11;;;;;;;;;;;11.00;99.90;;;;;;4966631;28;20069;-72
2022/10/10 04:30:37;;;;;;;;;;;11.10;99.90;;;;;;4973956;28;19978;-72
2022/10/10 04:33:02;;;;;;;;;;;11.10;99.90;;;;;;4964606;28;20471;-72
2022/10/10 04:35:28;;;;;;;;;;;11.10;99.90;;;;;;4969938;28;19918;-73
2022/10/10 04:37:53;;;;;;;;;;;11.20;99.90;;;;;;4980758;28;19942;-72
2022/10/10 04:40:19;;;;;;;;;;;11.20;99.90;;;;;;4966556;28;19918;-72
2022/10/10 04:42:45;;;;;;;;;;;11.30;99.90;;;;;;4968322;28;19921;-72
2022/10/10 04:45:10;;;;;;;;;;;11.30;99.90;;;;;;4971551;28;19929;-72
2022/10/10 04:47:36;;;;;;;;;;;11.40;99.90;;;;;;4983288;28;19936;-73
2022/10/10 04:50:01;;;;;;;;;;;11.40;99.90;;;;;;4974471;28;20402;-72
2022/10/10 04:52:27;;;;;;;;;;;11.30;99.90;;;;;;4963970;28;19926;-72
2022/10/10 04:54:52;;;;;;;;;;;11.30;99.90;;;;;;4964557;28;19963;-73
2022/10/10 04:57:18;;;;;;;;;;;11.30;99.90;;;;;;4976268;28;20004;-72
2022/10/10 04:59:43;;;;;;;;;;;11.30;99.90;;;;;;4967502;28;19992;-73
2022/10/10 05:02:09;;;;;;;;;;;11.30;99.90;;;;;;4954871;28;20356;-73
2022/10/10 05:04:34;;;;;;;;;;;11.40;99.90;;;;;;4975739;28;19926;-73
2022/10/10 05:07:00;;;;;;;;;;;11.40;99.90;;;;;;4962581;28;19918;-72
2022/10/10 05:09:25;;;;;;;;;;;11.40;99.90;;;;;;4964539;28;19918;-72
2022/10/10 05:11:51;;;;;;;;;;;11.40;99.90;;;;;;4962747;28;19918;-72
2022/10/10 05:14:17;;;;;;;;;;;11.40;99.90;;;;;;4968840;28;19918;-72
2022/10/10 05:16:42;;;;;;;;;;;11.40;99.90;;;;;;4961987;28;20139;-73
2022/10/10 05:19:08;;;;;;;;;;;11.50;99.90;;;;;;4961973;28;19918;-72
2022/10/10 05:21:33;;;;;;;;;;;11.50;99.90;;;;;;4982255;28;19991;-72
2022/10/10 05:23:58;;;;;;;;;;;11.50;99.90;;;;;;4975237;28;20465;-73
2022/10/10 05:26:24;;;;;;;;;;;11.60;99.90;;;;;;4962052;28;20446;-73
2022/10/10 05:28:49;;;;;;;;;;;11.50;99.90;;;;;;4962489;28;19922;-74
2022/10/10 05:31:15;;;;;;;;;;;11.60;99.90;;;;;;4943845;28;20313;-73
2022/10/10 05:33:40;;;;;;;;;;;11.60;99.90;;;;;;4946934;28;19953;-74
2022/10/10 05:36:11;;;;;;;;;;;11.60;99.90;;;;;;4972745;28;19933;-73
2022/10/10 05:38:37;;;;;;;;;;;11.60;99.90;;;;;;4963042;28;19961;-73
2022/10/10 05:41:02;;;;;;;;;;;11.70;99.90;;;;;;4961145;28;19972;-74
2022/10/10 05:43:28;;;;;;;;;;;11.70;99.90;;;;;;4963741;28;20021;-73
2022/10/10 05:45:54;;;;;;;;;;;11.70;99.90;;;;;;4963918;28;20286;-73
2022/10/10 05:48:20;;;;;;;;;;;11.80;99.90;;;;;;4974325;28;20382;-73
2022/10/10 05:50:50;;;;;;;;;;;11.80;99.90;;;;;;4944305;28;19997;-72
2022/10/10 05:53:16;;;;;;;;;;;11.70;99.90;;;;;;4963867;28;19918;-73
2022/10/10 05:55:43;;;;;;;;;;;11.80;99.90;;;;;;4963478;28;19921;-73
2022/10/10 05:58:09;;;;;;;;;;;11.80;99.90;;;;;;4957363;28;19918;-74
2022/10/10 06:00:35;;;;;;;;;;;11.70;99.90;;;;;;4959181;28;20056;-72
2022/10/10 06:03:01;;;;;;;;;;;11.70;99.90;;;;;;4977087;28;20645;-73
2022/10/10 06:05:27;;;;;;;;;;;11.80;99.90;;;;;;4980127;28;19918;-73
2022/10/10 06:07:52;;;;;;;;;;;11.70;99.90;;;;;;4966282;28;19955;-73
2022/10/10 06:10:18;;;;;;;;;;;11.80;99.90;;;;;;4962071;28;19967;-73
2022/10/10 06:12:44;;;;;;;;;;;11.80;99.90;;;;;;4968742;28;19972;-73
2022/10/10 06:15:10;;;;;;;;;;;11.80;99.90;;;;;;4977727;28;20125;-73
2022/10/10 06:17:36;;;;;;;;;;;11.80;99.90;;;;;;4966119;28;19922;-73
2022/10/10 06:20:02;;;;;;;;;;;11.80;99.90;;;;;;4964430;28;19921;-72
2022/10/10 06:22:28;;;;;;;;;;;11.80;99.90;;;;;;4963062;28;19922;-72
2022/10/10 06:24:53;;;;;;;;;;;11.90;99.90;;;;;;4958715;28;20279;-73
2022/10/10 06:27:19;;;;;;;;;;;11.90;99.90;;;;;;4958479;28;19961;-72
2022/10/10 06:29:44;;;;;;;;;;;11.90;99.90;;;;;;4958173;28;20016;-74
2022/10/10 06:32:10;;;;;;;;;;;11.80;99.90;;;;;;4955284;28;19918;-73
2022/10/10 06:34:35;;;;;;;;;;;11.90;99.90;;;;;;4957846;28;20278;-72
2022/10/10 06:37:01;;;;;;;;;;;11.90;99.90;;;;;;4960706;28;20011;-72
2022/10/10 06:39:26;;;;;;;;;;;12.00;99.90;;;;;;4958833;28;20398;-73
2022/10/10 06:41:51;;;;;;;;;;;12.00;99.90;;;;;;4960449;28;19933;-73
2022/10/10 06:44:17;;;;;;;;;;;12.10;99.90;;;;;;4964938;28;20008;-73
2022/10/10 06:46:43;;;;;;;;;;;12.20;99.90;;;;;;4962114;28;20440;-73
2022/10/10 06:49:08;;;;;;;;;;;12.30;99.90;;;;;;4968648;28;19930;-74
2022/10/10 06:51:34;;;;;;;;;;;12.30;99.90;;;;;;4962573;28;20058;-72
2022/10/10 06:53:59;;;;;;;;;;;12.30;99.90;;;;;;4969544;28;19957;-73
2022/10/10 06:56:25;;;;;;;;;;;12.40;99.90;;;;;;4960069;28;19965;-72
2022/10/10 06:58:50;;;;;;;;;;;12.40;99.90;;;;;;4961192;28;20378;-72
2022/10/10 07:01:17;;;;;;;;;;;12.40;99.90;;;;;;4969634;28;20287;-72
2022/10/10 07:03:42;;;;;;;;;;;12.50;99.90;;;;;;4959512;28;19918;-72
2022/10/10 07:06:09;;;;;;;;;;;12.60;99.90;;;;;;4960308;28;20432;-73
2022/10/10 07:08:35;;;;;;;;;;;12.70;99.90;;;;;;4956427;28;19979;-73
2022/10/10 07:11:01;;;;;;;;;;;12.80;99.90;;;;;;4957367;28;20228;-74
2022/10/10 07:13:27;;;;;;;;;;;12.90;99.90;;;;;;4968866;28;19971;-72
2022/10/10 07:15:52;;;;;;;;;;;12.90;99.90;;;;;;4962664;28;19922;-73
2022/10/10 07:18:18;;;;;;;;;;;12.90;99.90;;;;;;4975643;28;19917;-73
2022/10/10 07:20:43;;;;;;;;;;;12.90;99.90;;;;;;4971107;28;20460;-72
2022/10/10 07:23:09;;;;;;;;;;;12.90;99.90;;;;;;4964626;28;19926;-73
2022/10/10 07:25:39;;;;;;;;;;;12.90;99.90;;;;;;4948189;28;20064;-74
2022/10/10 07:28:05;;;;;;;;;;;12.90;99.90;;;;;;4962794;28;19977;-72
2022/10/10 07:30:31;;;;;;;;;;;13.00;99.90;;;;;;4954274;28;20445;-73
2022/10/10 07:32:56;;;;;;;;;;;12.90;99.90;;;;;;4953704;28;20365;-73
2022/10/10 07:35:22;;;;;;;;;;;12.90;99.90;;;;;;4954814;28;20386;-73
2022/10/10 07:37:47;;;;;;;;;;;12.90;99.90;;;;;;4955625;28;19934;-73
2022/10/10 07:40:13;;;;;;;;;;;12.90;99.90;;;;;;4962802;28;20369;-73
2022/10/10 07:42:39;;;;;;;;;;;12.90;99.90;;;;;;4955791;28;19926;-73
2022/10/10 07:45:05;;;;;;;;;;;12.90;99.90;;;;;;4966592;28;19918;-72
2022/10/10 07:47:31;;;;;;;;;;;13.00;99.90;;;;;;4961624;28;19956;-72
2022/10/10 07:49:56;;;;;;;;;;;12.90;99.90;;;;;;4958471;28;19921;-73
2022/10/10 07:52:21;;;;;;;;;;;12.90;99.90;;;;;;4952361;28;20378;-72
2022/10/10 07:54:47;;;;;;;;;;;13.00;99.90;;;;;;4954955;28;19959;-72
2022/10/10 07:57:13;;;;;;;;;;;13.00;99.90;;;;;;4953601;28;19980;-74
2022/10/10 07:59:39;;;;;;;;;;;13.00;99.90;;;;;;4947080;28;20322;-74
2022/10/10 08:02:05;;;;;;;;;;;13.00;99.90;;;;;;4951549;28;19960;-75
2022/10/10 08:04:31;;;;;;;;;;;13.10;99.90;;;;;;4957615;28;19918;-74
2022/10/10 08:06:56;;;;;;;;;;;13.10;99.90;;;;;;4959936;28;19925;-74
2022/10/10 08:09:22;;;;;;;;;;;13.10;99.90;;;;;;4955481;28;23333;-74
2022/10/10 08:11:48;;;;;;;;;;;13.10;99.90;;;;;;4954734;28;19918;-74
2022/10/10 08:14:13;;;;;;;;;;;13.20;99.90;;;;;;4958475;28;19929;-74
2022/10/10 08:16:39;;;;;;;;;;;13.20;99.90;;;;;;4959043;28;19919;-75
2022/10/10 08:19:04;;;;;;;;;;;13.20;99.90;;;;;;4959681;28;20001;-73
2022/10/10 08:21:30;;;;;;;;;;;13.30;99.90;;;;;;4959322;28;19926;-75
2022/10/10 08:23:55;;;;;;;;;;;13.30;99.90;;;;;;4956684;28;20078;-76
2022/10/10 08:26:21;;;;;;;;;;;13.30;99.90;;;;;;4951840;28;20289;-75
2022/10/10 08:28:47;;;;;;;;;;;13.40;99.90;;;;;;4959892;28;20055;-76
2022/10/10 08:31:14;;;;;;;;;;;13.40;99.90;;;;;;4957782;28;19918;-76
2022/10/10 08:33:40;;;;;;;;;;;13.40;99.90;;;;;;4961913;28;20024;-75
2022/10/10 08:36:07;;;;;;;;;;;13.40;99.90;;;;;;4956692;28;20345;-77
2022/10/10 08:38:32;;;;;;;;;;;13.30;99.90;;;;;;4964925;28;19914;-77
2022/10/10 08:40:59;;;;;;;;;;;13.10;99.90;;;;;;4949864;28;20234;-76
2022/10/10 08:43:34;;;;;;;;;;;13.00;99.90;;;;;;4957146;28;19919;-74
2022/10/10 08:46:04;;;;;;;;;;;12.90;99.90;;;;;;4939814;29;20390;-75
2022/10/10 08:48:30;;;;;;;;;;;12.90;99.90;;;;;;4964581;28;20383;-77
2022/10/10 08:50:59;;;;;;;;;;;12.80;99.90;;;;;;4971299;28;19948;-76
2022/10/10 08:53:34;;;;;;;;;;;12.70;99.90;;;;;;4962521;28;19926;-75
2022/10/10 08:56:00;;;;;;;;;;;12.70;99.90;;;;;;4956161;28;19992;-77
2022/10/10 08:58:31;;;;;;;;;;;12.60;99.90;;;;;;4955293;28;19925;-77
2022/10/10 09:01:07;;;;;;;;;;;12.70;99.90;;;;;;4955475;28;19922;-77
2022/10/10 09:03:36;;;;;;;;;;;12.80;99.90;;;;;;4963389;28;20013;-76
2022/10/10 09:06:04;;;;;;;;;;;13.10;99.90;;;;;;4961114;28;19925;-75
2022/10/10 09:08:53;;;;;;;;;;;13.90;99.90;;;;;;4961082;28;19918;-77
2022/10/10 09:11:30;;;;;;;;;;;15.40;99.90;;;;;;4943055;28;19961;-77
2022/10/10 09:13:59;;;;;;;;;;;15.70;99.90;;;;;;4961743;28;20327;-76
2022/10/10 09:16:37;;;;;;;;;;;15.20;99.90;;;;;;4964951;28;20666;-77
2022/10/10 09:19:08;;;;;;;;;;;14.70;99.90;;;;;;4962981;28;19925;-76
2022/10/10 09:21:35;;;;;;;;;;;14.10;99.90;;;;;;4977218;28;20323;-76
2022/10/10 09:24:16;;;;;;;;;;;13.80;99.90;;;;;;4963768;28;19921;-76
2022/10/10 09:26:54;;;;;;;;;;;13.50;99.90;;;;;;4956545;28;19918;-76
2022/10/10 09:29:32;;;;;;;;;;;13.20;99.90;;;;;;4961270;28;20389;-76
2022/10/10 09:31:57;;;;;;;;;;;13.10;99.90;;;;;;4963886;28;19918;-77
2022/10/10 09:34:47;;;;;;;;;;;13.10;99.90;;;;;;4952979;28;20018;-77
2022/10/10 09:37:18;;;;;;;;;;;13.00;99.90;;;;;;4960321;28;20410;-75
2022/10/10 09:39:49;;;;;;;;;;;13.10;99.90;;;;;;4965532;28;20469;-77
2022/10/10 09:42:17;;;;;;;;;;;13.20;99.90;;;;;;4962752;28;19926;-76
2022/10/10 09:44:43;;;;;;;;;;;13.20;99.90;;;;;;4962840;28;19925;-75
2022/10/10 09:47:11;;;;;;;;;;;13.30;99.90;;;;;;4962584;28;19925;-76
2022/10/10 09:49:37;;;;;;;;;;;13.30;99.90;;;;;;4962477;28;20272;-77
2022/10/10 09:52:10;;;;;;;;;;;13.20;99.90;;;;;;4956295;28;19925;-76
2022/10/10 09:54:36;;;;;;;;;;;13.30;99.90;;;;;;4963658;28;19922;-77
2022/10/10 09:57:01;;;;;;;;;;;13.60;99.90;;;;;;4961081;28;19918;-76
2022/10/10 09:59:38;;;;;;;;;;;13.90;99.90;;;;;;4957374;28;20418;-75
2022/10/10 10:02:19;;;;;;;;;;;14.10;99.90;;;;;;4956312;28;20412;-76
2022/10/10 10:04:45;;;;;;;;;;;14.10;99.90;;;;;;4957741;28;20374;-77
2022/10/10 10:07:18;;;;;;;;;;;14.30;99.90;;;;;;4952972;28;19924;-76
2022/10/10 10:09:48;;;;;;;;;;;14.60;99.90;;;;;;4955369;28;19929;-76
2022/10/10 10:12:14;;;;;;;;;;;14.80;99.90;;;;;;4953706;28;19981;-76
2022/10/10 10:14:40;;;;;;;;;;;15.60;99.90;;;;;;4955693;28;19918;-77
2022/10/10 10:17:11;;;;;;;;;;;16.00;99.90;;;;;;4957759;28;19973;-74
2022/10/10 10:19:38;;;;;;;;;;;16.20;99.90;;;;;;4608883;28;10000547;-77
2022/10/10 10:22:03;;;;;;;;;;;16.50;99.90;;;;;;4954787;28;19926;-77
2022/10/10 10:24:34;;;;;;;;;;;16.70;99.90;;;;;;4933537;28;20370;-76
2022/10/10 10:27:16;;;;;;;;;;;16.50;99.90;;;;;;4944627;28;19925;-77
2022/10/10 10:30:00;;;;;;;;;;;16.20;99.90;;;;;;4957391;28;19918;-76
2022/10/10 10:32:49;;;;;;;;;;;15.90;99.90;;;;;;4954337;28;19976;-76
2022/10/10 10:35:31;;;;;;;;;;;16.00;99.90;;;;;;4955750;28;19967;-78
2022/10/10 10:38:03;;;;;;;;;;;15.90;99.90;;;;;;4953869;28;19918;-75
2022/10/10 10:40:32;;;;;;;;;;;15.60;99.90;;;;;;4958027;28;19918;-75
2022/10/10 10:43:17;;;;;;;;;;;15.40;99.90;;;;;;4958020;28;20072;-76
2022/10/10 10:45:48;;;;;;;;;;;15.40;99.90;;;;;;4961193;28;20025;-75
2022/10/10 10:48:16;;;;;;;;;;;15.50;99.90;;;;;;4957029;28;19926;-76
2022/10/10 10:50:51;;;;;;;;;;;15.20;99.90;;;;;;4953393;28;20066;-76
2022/10/10 10:53:37;;;;;;;;;;;15.40;99.90;;;;;;4956856;28;19977;-75
2022/10/10 10:56:12;;;;;;;;;;;15.20;99.90;;;;;;4945531;28;19986;-77
2022/10/10 10:58:58;;;;;;;;;;;15.60;99.90;;;;;;4957274;28;19988;-79
2022/10/10 11:01:25;;;;;;;;;;;15.90;99.90;;;;;;4925163;28;20325;-78
2022/10/10 11:04:11;;;;;;;;;;;16.90;99.90;;;;;;4951823;28;20406;-80
2022/10/10 11:06:47;;;;;;;;;;;18.60;99.90;;;;;;4945847;28;19918;-76
2022/10/10 11:09:19;;;;;;;;;;;20.50;93.70;;;;;;4948620;28;21411;-82
2022/10/10 11:11:50;;;;;;;;;;;21.60;91.30;;;;;;4951456;28;20417;-77
2022/10/10 11:14:35;;;;;;;;;;;21.80;87.20;;;;;;4951035;28;20383;-77
2022/10/10 11:17:27;;;;;;;;;;;21.50;85.60;;;;;;4956541;28;19925;-76
2022/10/10 11:19:58;;;;;;;;;;;20.60;87.70;;;;;;4956456;28;20378;-78
2022/10/10 11:22:32;;;;;;;;;;;19.70;84.80;;;;;;4949304;28;19926;-77
2022/10/10 11:24:58;;;;;;;;;;;19.10;87.90;;;;;;4955735;28;19918;-77
2022/10/10 11:27:44;;;;;;;;;;;18.50;85.40;;;;;;4957938;28;19945;-77
2022/10/10 11:30:18;;;;;;;;;;;18.60;92.80;;;;;;4953158;28;20108;-78
2022/10/10 11:32:44;;;;;;;;;;;18.70;94.30;;;;;;4956125;28;19953;-79
2022/10/10 11:35:18;;;;;;;;;;;18.80;96.70;;;;;;4954605;28;19968;-77
2022/10/10 11:37:47;;;;;;;;;;;19.10;93.50;;;;;;4962251;28;20321;-76
2022/10/10 11:40:32;;;;;;;;;;;18.80;93.10;;;;;;4953139;28;19941;-77
2022/10/10 11:43:01;;;;;;;;;;;18.80;91.30;;;;;;4940795;28;19926;-78
2022/10/10 11:45:29;;;;;;;;;;;18.80;86.60;;;;;;4951096;28;20293;-78
2022/10/10 11:48:03;;;;;;;;;;;18.70;95.80;;;;;;4951619;28;19937;-78
2022/10/10 11:50:38;;;;;;;;;;;18.50;91.00;;;;;;4959471;28;20457;-76
2022/10/10 11:53:06;;;;;;;;;;;18.40;92.20;;;;;;4953572;28;19925;-77
2022/10/10 11:55:37;;;;;;;;;;;18.60;93.10;;;;;;4956249;28;19918;-78
2022/10/10 11:58:05;;;;;;;;;;;18.70;94.70;;;;;;4952627;28;19918;-76
2022/10/10 12:00:36;;;;;;;;;;;18.70;91.70;;;;;;4272731;28;9999843;-77
2022/10/10 12:03:02;;;;;;;;;;;18.70;93.50;;;;;;4949888;28;20003;-78
2022/10/10 12:05:29;;;;;;;;;;;19.00;92.20;;;;;;4956247;28;19918;-78
2022/10/10 12:07:58;;;;;;;;;;;19.00;93.10;;;;;;4956770;28;19925;-78
2022/10/10 12:10:57;;;;;;;;;;;19.10;93.10;;;;;;4953135;28;19973;-78
2022/10/10 12:13:26;;;;;;;;;;;19.10;88.60;;;;;;4924378;28;20028;-79
2022/10/10 12:15:52;;;;;;;;;;;19.40;91.60;;;;;;4946905;28;19929;-78
2022/10/10 12:18:41;;;;;;;;;;;19.30;82.80;;;;;;4946683;28;20465;-77
2022/10/10 12:21:12;;;;;;;;;;;19.20;86.30;;;;;;4936508;28;20267;-78
2022/10/10 12:23:39;;;;;;;;;;;19.10;83.50;;;;;;4953040;28;19977;-78
2022/10/10 12:26:05;;;;;;;;;;;18.90;81.00;;;;;;4947764;28;19933;-77
2022/10/10 12:28:49;;;;;;;;;;;18.80;80.20;;;;;;4945061;28;20157;-78
2022/10/10 12:31:15;;;;;;;;;;;18.90;85.80;;;;;;4949414;28;19973;-78
2022/10/10 12:33:43;;;;;;;;;;;18.90;82.20;;;;;;4959694;28;20041;-78
2022/10/10 12:36:18;;;;;;;;;;;18.90;82.50;;;;;;4959422;28;19945;-77
2022/10/10 12:39:04;;;;;;;;;;;18.90;83.20;;;;;;4954621;28;19922;-78
2022/10/10 12:41:49;;;;;;;;;;;18.80;75.50;;;;;;4957519;28;20307;-78
2022/10/10 12:44:33;;;;;;;;;;;18.70;82.20;;;;;;4947311;28;20010;-76
2022/10/10 12:47:26;;;;;;;;;;;18.60;73.50;;;;;;4956158;28;20374;-76
2022/10/10 12:49:59;;;;;;;;;;;18.50;76.70;;;;;;4932248;28;20007;-78
2022/10/10 12:52:34;;;;;;;;;;;18.50;74.50;;;;;;4611425;28;10000379;-77
2022/10/10 12:55:20;;;;;;;;;;;18.40;72.20;;;;;;4961123;28;19999;-77
2022/10/10 12:57:47;;;;;;;;;;;18.30;81.00;;;;;;4950226;28;19961;-75
2022/10/10 13:00:12;;;;;;;;;;;18.50;73.50;;;;;;4965047;28;20362;-78
2022/10/10 13:02:41;;;;;;;;;;;18.40;73.60;;;;;;4965628;28;20071;-78
2022/10/10 13:05:07;;;;;;;;;;;18.60;70.10;;;;;;4965684;28;20649;-77
2022/10/10 13:07:32;;;;;;;;;;;18.50;72.30;;;;;;4947345;28;21715;-79
2022/10/10 13:10:04;;;;;;;;;;;18.50;66.10;;;;;;4966431;28;19918;-76
2022/10/10 13:12:31;;;;;;;;;;;18.50;71.50;;;;;;4950890;28;19918;-75
2022/10/10 13:14:56;;;;;;;;;;;18.70;75.00;;;;;;4964768;28;20356;-78
2022/10/10 13:17:24;;;;;;;;;;;18.60;66.90;;;;;;4965270;28;20005;-78
2022/10/10 13:19:50;;;;;;;;;;;18.60;69.20;;;;;;4963816;28;20378;-79
2022/10/10 13:22:16;;;;;;;;;;;18.60;75.80;;;;;;4983501;28;19984;-79
2022/10/10 13:24:42;;;;;;;;;;;18.50;70.20;;;;;;4974258;28;19914;-78
2022/10/10 13:27:21;;;;;;;;;;;18.50;77.40;;;;;;4962169;28;19925;-78
2022/10/10 13:29:46;;;;;;;;;;;18.60;70.50;;;;;;4961686;28;20000;-78
2022/10/10 13:32:13;;;;;;;;;;;18.60;73.10;;;;;;4962387;28;20014;-78
2022/10/10 13:34:42;;;;;;;;;;;18.70;71.20;;;;;;4961113;28;20125;-78
2022/10/10 13:37:11;;;;;;;;;;;18.70;77.00;;;;;;4957312;28;19989;-80
2022/10/10 13:39:37;;;;;;;;;;;18.70;71.80;;;;;;4969881;28;19917;-79
2022/10/10 13:42:04;;;;;;;;;;;18.50;65.40;;;;;;4977857;28;19926;-79
2022/10/10 13:44:32;;;;;;;;;;;18.50;67.50;;;;;;4981785;28;19914;-80
2022/10/10 13:46:58;;;;;;;;;;;18.50;70.40;;;;;;4953208;28;20283;-78
2022/10/10 13:49:24;;;;;;;;;;;18.50;66.80;;;;;;4956694;28;20618;-79
2022/10/10 13:51:59;;;;;;;;;;;18.50;65.70;;;;;;4960400;28;19918;-79
2022/10/10 13:54:36;;;;;;;;;;;18.40;65.30;;;;;;4960856;28;20337;-77
2022/10/10 13:57:02;;;;;;;;;;;18.40;66.60;;;;;;4962554;28;20322;-78
2022/10/10 13:59:28;;;;;;;;;;;18.30;69.60;;;;;;4959959;28;19943;-78
2022/10/10 14:01:59;;;;;;;;;;;18.20;70.20;;;;;;4957251;28;20283;-80
2022/10/10 14:04:28;;;;;;;;;;;18.20;68.20;;;;;;4962381;28;19918;-77
2022/10/10 14:06:54;;;;;;;;;;;18.20;69.80;;;;;;4960576;28;19993;-80
2022/10/10 14:09:35;;;;;;;;;;;18.30;65.90;;;;;;4960096;28;20488;-79
2022/10/10 14:12:02;;;;;;;;;;;18.20;66.80;;;;;;4953406;28;20049;-81
2022/10/10 14:14:33;;;;;;;;;;;18.10;68.90;;;;;;4940069;28;19918;-77
2022/10/10 14:17:03;;;;;;;;;;;18.00;70.30;;;;;;4945292;28;19942;-81
2022/10/10 14:19:29;;;;;;;;;;;17.90;70.80;;;;;;4941293;28;19918;-78
2022/10/10 14:21:54;;;;;;;;;;;17.80;74.40;;;;;;4955163;28;19977;-82
2022/10/10 14:24:20;;;;;;;;;;;17.80;70.10;;;;;;4953422;28;19921;-80
2022/10/10 14:26:45;;;;;;;;;;;17.80;67.40;;;;;;4963147;28;19921;-81
2022/10/10 14:29:14;;;;;;;;;;;17.70;72.30;;;;;;4964059;28;20381;-80